sensor_id;sensor_type;location;lat;lon;timestamp;pressure;altitude;pressure_sealevel;temperature;humidity
62634;BME280;48704;50.534;6.442;2022-08-01T00:00:28;95737.34;;;17.11;100.00
62634;BME280;48704;50.534;6.442;2022-08-01T00:02:53;95741.94;;;17.14;100.00
62634;BME280;48704;50.534;6.442;2022-08-01T00:05:19;95736.31;;;17.14;100.00
62634;BME280;48704;50.534;6.442;2022-08-01T00:07:44;95733.59;;;16.97;100.00
62634;BME280;48704;50.534;6.442;2022-08-01T00:10:12;95731.78;;;17.06;100.00
62634;BME280;48704;50.534;6.442;2022-08-01T00:12:38;95729.44;;;17.10;100.00
62634;BME280;48704;50.534;6.442;2022-08-01T00:15:05;95726.94;;;16.95;100.00
62634;BME280;48704;50.534;6.442;2022-08-01T00:17:31;95723.03;;;17.09;100.00
62634;BME280;48704;50.534;6.442;2022-08-01T00:19:56;95734.00;;;17.18;100.00
62634;BME280;48704;50.534;6.442;2022-08-01T00:22:22;95722.50;;;17.16;100.00
62634;BME280;48704;50.534;6.442;2022-08-01T00:24:47;95728.72;;;16.98;100.00
62634;BME280;48704;50.534;6.442;2022-08-01T00:27:12;95733.00;;;17.10;100.00
62634;BME280;48704;50.534;6.442;2022-08-01T00:29:38;95729.22;;;17.02;100.00
62634;BME280;48704;50.534;6.442;2022-08-01T00:32:03;95730.28;;;16.88;100.00
62634;BME280;48704;50.534;6.442;2022-08-01T00:34:29;95730.50;;;17.01;100.00
62634;BME280;48704;50.534;6.442;2022-08-01T00:36:54;95732.28;;;17.04;100.00
62634;BME280;48704;50.534;6.442;2022-08-01T00:39:19;95735.06;;;17.10;100.00
62634;BME280;48704;50.534;6.442;2022-08-01T00:41:44;95731.72;;;17.11;100.00
62634;BME280;48704;50.534;6.442;2022-08-01T00:44:10;95730.97;;;17.11;100.00
62634;BME280;48704;50.534;6.442;2022-08-01T00:46:35;95726.84;;;17.12;100.00
62634;BME280;48704;50.534;6.442;2022-08-01T00:49:01;95727.94;;;17.03;100.00
62634;BME280;48704;50.534;6.442;2022-08-01T00:51:26;95722.84;;;16.96;100.00
62634;BME280;48704;50.534;6.442;2022-08-01T00:53:52;95725.38;;;16.99;100.00
62634;BME280;48704;50.534;6.442;2022-08-01T00:56:19;95730.78;;;16.92;100.00
62634;BME280;48704;50.534;6.442;2022-08-01T00:58:46;95727.97;;;16.97;100.00
62634;BME280;48704;50.534;6.442;2022-08-01T01:01:11;95733.31;;;17.01;100.00
62634;BME280;48704;50.534;6.442;2022-08-01T01:03:37;95726.75;;;16.70;100.00
62634;BME280;48704;50.534;6.442;2022-08-01T01:06:19;95728.72;;;16.92;100.00
62634;BME280;48704;50.534;6.442;2022-08-01T01:09:25;95732.09;;;16.80;100.00
62634;BME280;48704;50.534;6.442;2022-08-01T01:12:22;95726.69;;;16.93;100.00
62634;BME280;48704;50.534;6.442;2022-08-01T01:15:08;95725.19;;;16.81;100.00
62634;BME280;48704;50.534;6.442;2022-08-01T01:17:48;95731.34;;;16.62;100.00
62634;BME280;48704;50.534;6.442;2022-08-01T01:20:16;95728.03;;;16.53;100.00
62634;BME280;48704;50.534;6.442;2022-08-01T01:28:17;95724.97;;;16.56;100.00
62634;BME280;48704;50.534;6.442;2022-08-01T01:30:46;95725.25;;;16.36;100.00
62634;BME280;48704;50.534;6.442;2022-08-01T01:33:14;95731.63;;;16.36;100.00
62634;BME280;48704;50.534;6.442;2022-08-01T01:35:52;95727.31;;;16.13;100.00
62634;BME280;48704;50.534;6.442;2022-08-01T01:38:24;95741.13;;;16.17;100.00
62634;BME280;48704;50.534;6.442;2022-08-01T01:40:52;95738.56;;;16.08;100.00
62634;BME280;48704;50.534;6.442;2022-08-01T01:43:20;95729.09;;;16.05;100.00
62634;BME280;48704;50.534;6.442;2022-08-01T01:45:48;95737.00;;;16.07;100.00
62634;BME280;48704;50.534;6.442;2022-08-01T01:48:16;95738.81;;;15.93;100.00
62634;BME280;48704;50.534;6.442;2022-08-01T01:50:45;95743.91;;;15.89;100.00
62634;BME280;48704;50.534;6.442;2022-08-01T01:53:13;95739.59;;;15.93;100.00
62634;BME280;48704;50.534;6.442;2022-08-01T01:55:41;95741.13;;;15.94;100.00
62634;BME280;48704;50.534;6.442;2022-08-01T01:58:09;95736.00;;;15.87;100.00
62634;BME280;48704;50.534;6.442;2022-08-01T02:00:37;95734.22;;;15.95;100.00
62634;BME280;48704;50.534;6.442;2022-08-01T02:03:05;95729.34;;;16.01;100.00
62634;BME280;48704;50.534;6.442;2022-08-01T02:05:33;95728.84;;;16.09;100.00
62634;BME280;48704;50.534;6.442;2022-08-01T02:08:01;95735.47;;;16.05;100.00
62634;BME280;48704;50.534;6.442;2022-08-01T02:10:28;95734.97;;;16.07;100.00
62634;BME280;48704;50.534;6.442;2022-08-01T02:12:56;95726.78;;;16.03;100.00
62634;BME280;48704;50.534;6.442;2022-08-01T02:15:23;95723.22;;;16.09;100.00
62634;BME280;48704;50.534;6.442;2022-08-01T02:17:50;95720.41;;;16.14;100.00
62634;BME280;48704;50.534;6.442;2022-08-01T02:20:16;95717.59;;;16.20;100.00
62634;BME280;48704;50.534;6.442;2022-08-01T02:22:47;95723.22;;;16.20;100.00
62634;BME280;48704;50.534;6.442;2022-08-01T02:27:54;95716.06;;;16.30;100.00
62634;BME280;48704;50.534;6.442;2022-08-01T02:30:22;95717.09;;;16.27;100.00
62634;BME280;48704;50.534;6.442;2022-08-01T02:32:58;95725.53;;;16.21;100.00
62634;BME280;48704;50.534;6.442;2022-08-01T02:35:28;95717.59;;;16.20;100.00
62634;BME280;48704;50.534;6.442;2022-08-01T02:37:56;95727.56;;;16.10;100.00
62634;BME280;48704;50.534;6.442;2022-08-01T02:40:23;95720.16;;;16.18;100.00
62634;BME280;48704;50.534;6.442;2022-08-01T02:42:50;95719.66;;;16.14;100.00
62634;BME280;48704;50.534;6.442;2022-08-01T02:45:19;95720.66;;;16.11;100.00
62634;BME280;48704;50.534;6.442;2022-08-01T02:47:46;95722.44;;;16.14;100.00
62634;BME280;48704;50.534;6.442;2022-08-01T02:50:14;95717.09;;;16.16;100.00
62634;BME280;48704;50.534;6.442;2022-08-01T02:52:43;95725.00;;;16.06;100.00
62634;BME280;48704;50.534;6.442;2022-08-01T02:55:11;95718.63;;;15.94;100.00
62634;BME280;48704;50.534;6.442;2022-08-01T02:57:38;95723.22;;;16.09;100.00
62634;BME280;48704;50.534;6.442;2022-08-01T03:00:05;95714.53;;;16.07;100.00
62634;BME280;48704;50.534;6.442;2022-08-01T03:02:32;95718.09;;;16.01;100.00
62634;BME280;48704;50.534;6.442;2022-08-01T03:05:00;95714.53;;;16.07;100.00
62634;BME280;48704;50.534;6.442;2022-08-01T03:07:28;95715.03;;;16.11;100.00
62634;BME280;48704;50.534;6.442;2022-08-01T03:09:55;95707.88;;;16.10;100.00
62634;BME280;48704;50.534;6.442;2022-08-01T03:12:25;95714.53;;;16.18;100.00
62634;BME280;48704;50.534;6.442;2022-08-01T03:14:52;95707.13;;;16.15;100.00
62634;BME280;48704;50.534;6.442;2022-08-01T03:17:21;95707.88;;;16.10;100.00
62634;BME280;48704;50.534;6.442;2022-08-01T03:19:49;95710.69;;;16.04;100.00
62634;BME280;48704;50.534;6.442;2022-08-01T03:22:16;95717.59;;;16.14;100.00
62634;BME280;48704;50.534;6.442;2022-08-01T03:24:44;95718.09;;;16.13;100.00
62634;BME280;48704;50.534;6.442;2022-08-01T03:27:14;95713.00;;;16.17;100.00
62634;BME280;48704;50.534;6.442;2022-08-01T03:29:41;95715.56;;;16.15;100.00
62634;BME280;48704;50.534;6.442;2022-08-01T03:32:09;95720.16;;;15.95;100.00
62634;BME280;48704;50.534;6.442;2022-08-01T03:34:36;95724.25;;;15.94;100.00
62634;BME280;48704;50.534;6.442;2022-08-01T03:37:17;95712.50;;;16.13;100.00
62634;BME280;48704;50.534;6.442;2022-08-01T03:40:06;95722.72;;;16.10;100.00
62634;BME280;48704;50.534;6.442;2022-08-01T03:42:36;95719.13;;;15.87;100.00
62634;BME280;48704;50.534;6.442;2022-08-01T03:45:07;95724.25;;;15.94;100.00
62634;BME280;48704;50.534;6.442;2022-08-01T03:47:35;95730.63;;;16.12;100.00
62634;BME280;48704;50.534;6.442;2022-08-01T03:50:03;95729.84;;;16.00;100.00
62634;BME280;48704;50.534;6.442;2022-08-01T03:52:30;95722.19;;;16.12;100.00
62634;BME280;48704;50.534;6.442;2022-08-01T03:54:58;95730.38;;;16.21;100.00
62634;BME280;48704;50.534;6.442;2022-08-01T03:57:27;95726.53;;;16.13;100.00
62634;BME280;48704;50.534;6.442;2022-08-01T03:59:54;95719.13;;;15.98;100.00
62634;BME280;48704;50.534;6.442;2022-08-01T04:02:21;95723.22;;;16.09;100.00
62634;BME280;48704;50.534;6.442;2022-08-01T04:04:47;95730.88;;;16.25;100.00
62634;BME280;48704;50.534;6.442;2022-08-01T04:07:26;95723.72;;;16.24;100.00
62634;BME280;48704;50.534;6.442;2022-08-01T04:09:52;95723.47;;;16.27;100.00
62634;BME280;48704;50.534;6.442;2022-08-01T04:12:18;95722.72;;;16.27;100.00
62634;BME280;48704;50.534;6.442;2022-08-01T04:14:43;95720.16;;;16.29;100.00
62634;BME280;48704;50.534;6.442;2022-08-01T04:17:08;95719.13;;;16.21;100.00
62634;BME280;48704;50.534;6.442;2022-08-01T04:19:34;95721.44;;;16.17;100.00
62634;BME280;48704;50.534;6.442;2022-08-01T04:21:59;95722.94;;;16.34;100.00
62634;BME280;48704;50.534;6.442;2022-08-01T04:24:26;95717.09;;;16.16;100.00
62634;BME280;48704;50.534;6.442;2022-08-01T04:26:55;95730.63;;;16.17;100.00
62634;BME280;48704;50.534;6.442;2022-08-01T04:29:23;95728.59;;;15.90;100.00
62634;BME280;48704;50.534;6.442;2022-08-01T04:31:50;95731.91;;;15.99;100.00
62634;BME280;48704;50.534;6.442;2022-08-01T04:34:21;95729.34;;;16.24;100.00
62634;BME280;48704;50.534;6.442;2022-08-01T04:36:48;95737.53;;;15.94;100.00
62634;BME280;48704;50.534;6.442;2022-08-01T04:39:16;95735.75;;;15.96;100.00
62634;BME280;48704;50.534;6.442;2022-08-01T04:41:44;95731.16;;;16.27;100.00
62634;BME280;48704;50.534;6.442;2022-08-01T04:44:12;95737.03;;;16.29;100.00
62634;BME280;48704;50.534;6.442;2022-08-01T04:46:38;95745.44;;;16.46;100.00
62634;BME280;48704;50.534;6.442;2022-08-01T04:49:06;95739.78;;;16.57;100.00
62634;BME280;48704;50.534;6.442;2022-08-01T04:51:32;95736.22;;;16.51;100.00
62634;BME280;48704;50.534;6.442;2022-08-01T04:53:57;95745.44;;;16.34;100.00
62634;BME280;48704;50.534;6.442;2022-08-01T04:56:23;95753.91;;;16.29;100.00
62634;BME280;48704;50.534;6.442;2022-08-01T04:58:48;95749.28;;;15.92;100.00
62634;BME280;48704;50.534;6.442;2022-08-01T05:01:34;95752.38;;;16.28;100.00
62634;BME280;48704;50.534;6.442;2022-08-01T05:03:59;95756.41;;;16.60;100.00
62634;BME280;48704;50.534;6.442;2022-08-01T05:06:25;95744.69;;;16.67;100.00
62634;BME280;48704;50.534;6.442;2022-08-01T05:08:50;95749.28;;;16.70;100.00
62634;BME280;48704;50.534;6.442;2022-08-01T05:11:15;95754.34;;;16.72;100.00
62634;BME280;48704;50.534;6.442;2022-08-01T05:13:40;95761.56;;;16.67;100.00
62634;BME280;48704;50.534;6.442;2022-08-01T05:16:06;95754.13;;;16.70;100.00
62634;BME280;48704;50.534;6.442;2022-08-01T05:18:32;95764.84;;;16.71;100.00
62634;BME280;48704;50.534;6.442;2022-08-01T05:20:57;95761.75;;;16.81;100.00
62634;BME280;48704;50.534;6.442;2022-08-01T05:23:23;95770.97;;;16.81;100.00
62634;BME280;48704;50.534;6.442;2022-08-01T05:25:48;95764.88;;;16.66;100.00
62634;BME280;48704;50.534;6.442;2022-08-01T05:28:14;95774.06;;;16.78;100.00
62634;BME280;48704;50.534;6.442;2022-08-01T05:30:40;95762.03;;;16.71;100.00
62634;BME280;48704;50.534;6.442;2022-08-01T05:33:05;95775.84;;;16.81;100.00
62634;BME280;48704;50.534;6.442;2022-08-01T05:35:31;95766.09;;;16.93;100.00
62634;BME280;48704;50.534;6.442;2022-08-01T05:37:56;95762.00;;;16.94;100.00
62634;BME280;48704;50.534;6.442;2022-08-01T05:40:21;95764.22;;;17.12;100.00
62634;BME280;48704;50.534;6.442;2022-08-01T05:42:47;95757.38;;;17.02;100.00
62634;BME280;48704;50.534;6.442;2022-08-01T05:45:12;95764.41;;;17.36;100.00
62634;BME280;48704;50.534;6.442;2022-08-01T05:47:37;95762.91;;;17.24;100.00
62634;BME280;48704;50.534;6.442;2022-08-01T05:50:03;95759.84;;;17.22;100.00
62634;BME280;48704;50.534;6.442;2022-08-01T05:52:28;95759.16;;;17.05;100.00
62634;BME280;48704;50.534;6.442;2022-08-01T05:54:54;95773.25;;;16.99;100.00
62634;BME280;48704;50.534;6.442;2022-08-01T05:57:19;95765.09;;;16.85;100.00
62634;BME280;48704;50.534;6.442;2022-08-01T05:59:44;95769.06;;;17.17;100.00
62634;BME280;48704;50.534;6.442;2022-08-01T06:02:10;95761.41;;;17.12;100.00
62634;BME280;48704;50.534;6.442;2022-08-01T06:04:35;95764.50;;;17.09;100.00
62634;BME280;48704;50.534;6.442;2022-08-01T06:07:00;95763.97;;;17.10;100.00
62634;BME280;48704;50.534;6.442;2022-08-01T06:09:26;95768.13;;;16.98;100.00
62634;BME280;48704;50.534;6.442;2022-08-01T06:11:51;95769.41;;;16.97;100.00
62634;BME280;48704;50.534;6.442;2022-08-01T06:14:16;95772.59;;;17.34;100.00
62634;BME280;48704;50.534;6.442;2022-08-01T06:16:41;95778.75;;;17.38;100.00
62634;BME280;48704;50.534;6.442;2022-08-01T06:19:07;95768.72;;;16.68;100.00
62634;BME280;48704;50.534;6.442;2022-08-01T06:21:32;95775.84;;;16.81;100.00
62634;BME280;48704;50.534;6.442;2022-08-01T06:23:58;95765.06;;;16.96;100.00
62634;BME280;48704;50.534;6.442;2022-08-01T06:26:23;95763.69;;;17.19;100.00
62634;BME280;48704;50.534;6.442;2022-08-01T06:28:48;95767.03;;;17.12;100.00
62634;BME280;48704;50.534;6.442;2022-08-01T06:31:13;95775.84;;;16.47;100.00
62634;BME280;48704;50.534;6.442;2022-08-01T06:33:40;95766.84;;;16.99;100.00
62634;BME280;48704;50.534;6.442;2022-08-01T06:36:06;95772.91;;;17.20;100.00
62634;BME280;48704;50.534;6.442;2022-08-01T06:38:31;95766.78;;;17.10;100.00
62634;BME280;48704;50.534;6.442;2022-08-01T06:40:56;95770.66;;;17.07;100.00
62634;BME280;48704;50.534;6.442;2022-08-01T06:43:22;95775.06;;;16.80;100.00
62634;BME280;48704;50.534;6.442;2022-08-01T06:45:48;95773.31;;;16.49;100.00
62634;BME280;48704;50.534;6.442;2022-08-01T06:48:13;95775.63;;;16.67;100.00
62634;BME280;48704;50.534;6.442;2022-08-01T06:50:39;95780.69;;;16.91;100.00
62634;BME280;48704;50.534;6.442;2022-08-01T06:53:04;95771.19;;;17.00;100.00
62634;BME280;48704;50.534;6.442;2022-08-01T06:55:30;95778.31;;;17.12;100.00
62634;BME280;48704;50.534;6.442;2022-08-01T06:57:55;95790.16;;;16.94;100.00
62634;BME280;48704;50.534;6.442;2022-08-01T07:00:22;95774.78;;;16.95;100.00
62634;BME280;48704;50.534;6.442;2022-08-01T07:02:52;95790.13;;;17.05;100.00
62634;BME280;48704;50.534;6.442;2022-08-01T07:05:18;95777.34;;;17.04;100.00
62634;BME280;48704;50.534;6.442;2022-08-01T07:07:44;95789.66;;;16.84;100.00
62634;BME280;48704;50.534;6.442;2022-08-01T07:10:09;95790.16;;;16.94;100.00
62634;BME280;48704;50.534;6.442;2022-08-01T07:12:36;95781.97;;;16.74;100.00
62634;BME280;48704;50.534;6.442;2022-08-01T07:15:09;95784.31;;;16.69;100.00
62634;BME280;48704;50.534;6.442;2022-08-01T07:17:39;95785.78;;;16.98;100.00
62634;BME280;48704;50.534;6.442;2022-08-01T07:20:09;95784.25;;;16.92;100.00
62634;BME280;48704;50.534;6.442;2022-08-01T07:22:34;95782.25;;;16.76;100.00
62634;BME280;48704;50.534;6.442;2022-08-01T07:25:00;95782.53;;;16.66;100.00
62634;BME280;48704;50.534;6.442;2022-08-01T07:27:25;95786.56;;;16.99;100.00
62634;BME280;48704;50.534;6.442;2022-08-01T07:29:51;95781.94;;;17.07;100.00
62634;BME280;48704;50.534;6.442;2022-08-01T07:32:16;95780.81;;;17.32;100.00
62634;BME280;48704;50.534;6.442;2022-08-01T07:34:41;95779.16;;;17.54;100.00
62634;BME280;48704;50.534;6.442;2022-08-01T07:37:07;95776.09;;;17.52;100.00
62634;BME280;48704;50.534;6.442;2022-08-01T07:39:32;95780.94;;;17.57;100.00
62634;BME280;48704;50.534;6.442;2022-08-01T07:41:57;95791.41;;;17.62;100.00
62634;BME280;48704;50.534;6.442;2022-08-01T07:44:23;95793.91;;;17.82;100.00
62634;BME280;48704;50.534;6.442;2022-08-01T07:46:48;95797.66;;;17.96;100.00
62634;BME280;48704;50.534;6.442;2022-08-01T07:49:13;95795.78;;;18.10;100.00
62634;BME280;48704;50.534;6.442;2022-08-01T07:51:39;95794.47;;;17.75;100.00
62634;BME280;48704;50.534;6.442;2022-08-01T07:54:08;95795.13;;;17.92;100.00
62634;BME280;48704;50.534;6.442;2022-08-01T07:56:33;95798.44;;;17.96;100.00
62634;BME280;48704;50.534;6.442;2022-08-01T07:58:58;95794.09;;;17.95;100.00
62634;BME280;48704;50.534;6.442;2022-08-01T08:01:24;95794.38;;;17.34;100.00
62634;BME280;48704;50.534;6.442;2022-08-01T08:03:49;95790.91;;;17.69;100.00
62634;BME280;48704;50.534;6.442;2022-08-01T08:06:14;95798.38;;;18.08;100.00
62634;BME280;48704;50.534;6.442;2022-08-01T08:08:40;95804.69;;;17.78;100.00
62634;BME280;48704;50.534;6.442;2022-08-01T08:11:05;95797.44;;;17.88;100.00
62634;BME280;48704;50.534;6.442;2022-08-01T08:13:30;95804.84;;;17.97;100.00
62634;BME280;48704;50.534;6.442;2022-08-01T08:15:56;95798.44;;;17.96;100.00
62634;BME280;48704;50.534;6.442;2022-08-01T08:18:23;95797.44;;;17.88;100.00
62634;BME280;48704;50.534;6.442;2022-08-01T08:20:48;95803.53;;;18.03;100.00
62634;BME280;48704;50.534;6.442;2022-08-01T08:23:14;95809.66;;;18.43;100.00
62634;BME280;48704;50.534;6.442;2022-08-01T08:25:57;95810.41;;;18.08;100.00
62634;BME280;48704;50.534;6.442;2022-08-01T08:28:22;95801.50;;;17.98;100.00
62634;BME280;48704;50.534;6.442;2022-08-01T08:30:48;95805.84;;;17.99;100.00
62634;BME280;48704;50.534;6.442;2022-08-01T08:33:13;95811.44;;;18.11;100.00
62634;BME280;48704;50.534;6.442;2022-08-01T08:35:39;95810.53;;;18.27;100.00
62634;BME280;48704;50.534;6.442;2022-08-01T08:38:06;95818.47;;;17.87;100.00
62634;BME280;48704;50.534;6.442;2022-08-01T08:40:32;95821.66;;;17.56;100.00
62634;BME280;48704;50.534;6.442;2022-08-01T08:43:03;95826.41;;;17.14;100.00
62634;BME280;48704;50.534;6.442;2022-08-01T08:45:29;95830.59;;;16.80;100.00
62634;BME280;48704;50.534;6.442;2022-08-01T08:47:55;95817.53;;;16.93;100.00
62634;BME280;48704;50.534;6.442;2022-08-01T08:50:24;95821.38;;;16.85;100.00
62634;BME280;48704;50.534;6.442;2022-08-01T08:52:52;95823.09;;;17.21;100.00
62634;BME280;48704;50.534;6.442;2022-08-01T08:55:18;95829.72;;;17.24;100.00
62634;BME280;48704;50.534;6.442;2022-08-01T08:57:44;95820.09;;;17.77;100.00
62634;BME280;48704;50.534;6.442;2022-08-01T09:00:10;95816.41;;;18.29;100.00
62634;BME280;48704;50.534;6.442;2022-08-01T09:02:41;95821.25;;;18.34;100.00
62634;BME280;48704;50.534;6.442;2022-08-01T09:05:07;95821.97;;;18.40;100.00
62634;BME280;48704;50.534;6.442;2022-08-01T09:07:33;95818.09;;;18.43;100.00
62634;BME280;48704;50.534;6.442;2022-08-01T09:09:58;95825.88;;;18.97;100.00
62634;BME280;48704;50.534;6.442;2022-08-01T09:12:23;95825.53;;;19.06;100.00
62634;BME280;48704;50.534;6.442;2022-08-01T09:14:48;95821.38;;;19.31;100.00
62634;BME280;48704;50.534;6.442;2022-08-01T09:17:15;95827.06;;;19.07;100.00
62634;BME280;48704;50.534;6.442;2022-08-01T09:19:43;95823.28;;;18.99;100.00
62634;BME280;48704;50.534;6.442;2022-08-01T09:22:14;95829.69;;;18.99;100.00
62634;BME280;48704;50.534;6.442;2022-08-01T09:24:56;95825.13;;;18.66;100.00
62634;BME280;48704;50.534;6.442;2022-08-01T09:27:22;95826.53;;;18.84;100.00
62634;BME280;48704;50.534;6.442;2022-08-01T09:29:50;95832.19;;;19.09;100.00
62634;BME280;48704;50.534;6.442;2022-08-01T09:32:16;95825.41;;;19.17;100.00
62634;BME280;48704;50.534;6.442;2022-08-01T09:34:41;95821.88;;;19.35;100.00
62634;BME280;48704;50.534;6.442;2022-08-01T09:37:06;95827.47;;;19.84;100.00
62634;BME280;48704;50.534;6.442;2022-08-01T09:39:36;95835.78;;;19.77;100.00
62634;BME280;48704;50.534;6.442;2022-08-01T09:42:25;95832.50;;;20.29;100.00
62634;BME280;48704;50.534;6.442;2022-08-01T09:44:51;95835.56;;;20.12;100.00
62634;BME280;48704;50.534;6.442;2022-08-01T09:47:18;95837.13;;;19.94;100.00
62634;BME280;48704;50.534;6.442;2022-08-01T09:49:53;95828.25;;;20.03;99.08
62634;BME280;48704;50.534;6.442;2022-08-01T09:52:21;95831.50;;;19.70;100.00
62634;BME280;48704;50.534;6.442;2022-08-01T09:55:01;95832.50;;;20.48;100.00
62634;BME280;48704;50.534;6.442;2022-08-01T09:57:27;95838.25;;;19.67;100.00
62634;BME280;48704;50.534;6.442;2022-08-01T09:59:55;95838.66;;;19.95;100.00
62634;BME280;48704;50.534;6.442;2022-08-01T10:04:52;95841.38;;;19.82;98.66
62634;BME280;48704;50.534;6.442;2022-08-01T10:07:18;95842.16;;;19.34;100.00
62634;BME280;48704;50.534;6.442;2022-08-01T10:09:44;95849.22;;;18.67;100.00
62634;BME280;48704;50.534;6.442;2022-08-01T10:12:14;95844.59;;;18.34;100.00
62634;BME280;48704;50.534;6.442;2022-08-01T10:14:40;95847.44;;;17.82;100.00
62634;BME280;48704;50.534;6.442;2022-08-01T10:17:08;95833.13;;;17.80;100.00
62634;BME280;48704;50.534;6.442;2022-08-01T10:19:34;95841.47;;;18.02;100.00
62634;BME280;48704;50.534;6.442;2022-08-01T10:22:01;95837.00;;;17.77;100.00
62634;BME280;48704;50.534;6.442;2022-08-01T10:24:29;95840.88;;;17.68;100.00
62634;BME280;48704;50.534;6.442;2022-08-01T10:26:58;95842.31;;;17.86;100.00
62634;BME280;48704;50.534;6.442;2022-08-01T10:29:28;95846.16;;;17.83;100.00
62634;BME280;48704;50.534;6.442;2022-08-01T10:31:56;95852.91;;;17.58;100.00
62634;BME280;48704;50.534;6.442;2022-08-01T10:34:22;95851.72;;;17.36;100.00
62634;BME280;48704;50.534;6.442;2022-08-01T10:36:48;95855.53;;;17.45;100.00
62634;BME280;48704;50.534;6.442;2022-08-01T10:39:14;95852.50;;;17.31;100.00
62634;BME280;48704;50.534;6.442;2022-08-01T10:41:41;95849.59;;;17.65;100.00
62634;BME280;48704;50.534;6.442;2022-08-01T10:44:07;95851.63;;;18.17;100.00
62634;BME280;48704;50.534;6.442;2022-08-01T10:46:34;95850.03;;;18.21;100.00
62634;BME280;48704;50.534;6.442;2022-08-01T10:49:14;95852.22;;;18.81;100.00
62634;BME280;48704;50.534;6.442;2022-08-01T10:51:41;95838.13;;;18.75;100.00
62634;BME280;48704;50.534;6.442;2022-08-01T10:54:08;95838.91;;;18.76;100.00
62634;BME280;48704;50.534;6.442;2022-08-01T10:56:46;95848.34;;;18.84;100.00
62634;BME280;48704;50.534;6.442;2022-08-01T10:59:22;95840.50;;;18.95;100.00
62634;BME280;48704;50.534;6.442;2022-08-01T11:02:06;95843.94;;;19.37;100.00
62634;BME280;48704;50.534;6.442;2022-08-01T11:04:34;95846.38;;;19.27;100.00
62634;BME280;48704;50.534;6.442;2022-08-01T11:07:07;95844.22;;;19.33;100.00
62634;BME280;48704;50.534;6.442;2022-08-01T11:09:46;95844.59;;;19.24;100.00
62634;BME280;48704;50.534;6.442;2022-08-01T11:12:16;95840.66;;;19.57;100.00
62634;BME280;48704;50.534;6.442;2022-08-01T11:17:36;95845.22;;;20.03;100.00
62634;BME280;48704;50.534;6.442;2022-08-01T11:20:11;95843.81;;;20.80;100.00
62634;BME280;48704;50.534;6.442;2022-08-01T11:30:46;95846.78;;;21.32;100.00
62634;BME280;48704;50.534;6.442;2022-08-01T11:33:13;95845.38;;;21.39;100.00
62634;BME280;48704;50.534;6.442;2022-08-01T11:38:37;95838.28;;;21.59;94.41
62634;BME280;48704;50.534;6.442;2022-08-01T11:41:23;95841.59;;;20.59;96.65
62634;BME280;48704;50.534;6.442;2022-08-01T11:44:03;95842.44;;;19.79;100.00
62634;BME280;48704;50.534;6.442;2022-08-01T11:54:39;95837.19;;;19.21;100.00
62634;BME280;48704;50.534;6.442;2022-08-01T11:57:10;95841.06;;;19.18;100.00
62634;BME280;48704;50.534;6.442;2022-08-01T11:59:39;95851.53;;;19.48;100.00
62634;BME280;48704;50.534;6.442;2022-08-01T12:02:15;95847.91;;;19.53;100.00
62634;BME280;48704;50.534;6.442;2022-08-01T12:07:17;95858.16;;;19.56;100.00
62634;BME280;48704;50.534;6.442;2022-08-01T12:09:43;95864.88;;;19.53;100.00
62634;BME280;48704;50.534;6.442;2022-08-01T12:12:09;95871.81;;;19.52;100.00
62634;BME280;48704;50.534;6.442;2022-08-01T12:14:35;95867.53;;;19.40;100.00
62634;BME280;48704;50.534;6.442;2022-08-01T12:17:00;95863.91;;;19.45;100.00
62634;BME280;48704;50.534;6.442;2022-08-01T12:19:25;95868.06;;;19.14;100.00
62634;BME280;48704;50.534;6.442;2022-08-01T12:22:11;95864.47;;;19.67;100.00
62634;BME280;48704;50.534;6.442;2022-08-01T12:24:38;95866.59;;;19.80;100.00
62634;BME280;48704;50.534;6.442;2022-08-01T12:27:05;95865.31;;;19.08;100.00
62634;BME280;48704;50.534;6.442;2022-08-01T12:29:34;95861.03;;;18.96;100.00
62634;BME280;48704;50.534;6.442;2022-08-01T12:32:00;95873.88;;;19.27;100.00
62634;BME280;48704;50.534;6.442;2022-08-01T12:34:28;95864.94;;;18.93;100.00
62634;BME280;48704;50.534;6.442;2022-08-01T12:36:58;95860.94;;;19.31;100.00
62634;BME280;48704;50.534;6.442;2022-08-01T12:39:33;95871.47;;;19.31;100.00
62634;BME280;48704;50.534;6.442;2022-08-01T12:41:59;95870.44;;;19.34;100.00
62634;BME280;48704;50.534;6.442;2022-08-01T12:44:27;95867.88;;;19.06;100.00
62634;BME280;48704;50.534;6.442;2022-08-01T12:46:55;95867.22;;;19.24;100.00
62634;BME280;48704;50.534;6.442;2022-08-01T12:49:21;95867.69;;;19.28;100.00
62634;BME280;48704;50.534;6.442;2022-08-01T12:51:46;95863.91;;;19.45;100.00
62634;BME280;48704;50.534;6.442;2022-08-01T12:54:12;95862.75;;;19.59;100.00
62634;BME280;48704;50.534;6.442;2022-08-01T12:56:37;95861.53;;;19.49;100.00
62634;BME280;48704;50.534;6.442;2022-08-01T12:59:19;95873.91;;;19.70;100.00
62634;BME280;48704;50.534;6.442;2022-08-01T13:01:45;95867.66;;;19.77;99.15
62634;BME280;48704;50.534;6.442;2022-08-01T13:04:10;95862.00;;;19.77;100.00
62634;BME280;48704;50.534;6.442;2022-08-01T13:06:35;95866.69;;;19.93;99.59
62634;BME280;48704;50.534;6.442;2022-08-01T13:11:34;95864.03;;;20.01;97.22
62634;BME280;48704;50.534;6.442;2022-08-01T13:13:59;95866.94;;;19.95;100.00
62634;BME280;48704;50.534;6.442;2022-08-01T13:16:26;95866.22;;;19.89;99.78
62634;BME280;48704;50.534;6.442;2022-08-01T13:18:55;95861.81;;;19.94;99.83
62634;BME280;48704;50.534;6.442;2022-08-01T13:21:28;95857.28;;;19.66;100.00
62634;BME280;48704;50.534;6.442;2022-08-01T13:24:08;95867.53;;;19.88;98.54
62634;BME280;48704;50.534;6.442;2022-08-01T13:26:49;95874.84;;;19.78;100.00
62634;BME280;48704;50.534;6.442;2022-08-01T13:29:19;95872.53;;;19.58;97.55
62634;BME280;48704;50.534;6.442;2022-08-01T13:31:45;95864.31;;;19.79;98.62